createdAt,value
2022-12-18T00:01:27.316Z,31.60
2022-12-18T00:03:56.379Z,31.80
2022-12-18T00:08:53.326Z,28.20
2022-12-18T00:11:22.950Z,27.80
2022-12-18T00:13:51.157Z,28.60
2022-12-18T00:16:21.395Z,26.20
2022-12-18T00:18:50.361Z,26.60
2022-12-18T00:21:19.351Z,22.90
2022-12-18T00:23:48.383Z,22.10
2022-12-18T00:26:24.247Z,18.40
2022-12-18T00:28:53.511Z,23.50
2022-12-18T00:31:24.360Z,25.80
2022-12-18T00:33:56.211Z,27.20
2022-12-18T00:36:27.461Z,27.90
2022-12-18T00:38:56.905Z,26.20
2022-12-18T00:44:13.904Z,23.70
2022-12-18T00:46:43.003Z,29.60
2022-12-18T00:49:10.623Z,26.60
2022-12-18T00:51:38.221Z,26.50
2022-12-18T00:54:05.812Z,30.50
2022-12-18T00:56:33.121Z,27.00
2022-12-18T00:59:00.605Z,27.60
2022-12-18T01:01:28.789Z,24.70
2022-12-18T01:03:56.384Z,24.40
2022-12-18T01:06:24.195Z,24.90
2022-12-18T01:08:51.834Z,22.80
2022-12-18T01:11:20.857Z,22.80
2022-12-18T01:16:18.139Z,23.60
2022-12-18T01:18:45.813Z,22.70
2022-12-18T01:21:16.652Z,22.90
2022-12-18T01:23:44.006Z,24.50
2022-12-18T01:26:16.620Z,22.80
2022-12-18T01:28:45.129Z,25.20
2022-12-18T01:31:21.711Z,56.40
2022-12-18T01:33:50.346Z,22.70
2022-12-18T01:36:22.566Z,22.00
2022-12-18T01:38:51.648Z,22.50
2022-12-18T01:41:49.456Z,23.50
2022-12-18T01:44:58.265Z,22.90
2022-12-18T01:47:39.619Z,23.20
2022-12-18T01:50:14.058Z,21.80
2022-12-18T01:52:44.219Z,32.50
2022-12-18T01:57:42.393Z,20.00
2022-12-18T02:00:16.739Z,22.80
2022-12-18T02:02:46.693Z,22.90
2022-12-18T02:05:24.206Z,21.30
2022-12-18T02:07:57.617Z,25.00
2022-12-18T02:10:31.325Z,22.40
2022-12-18T02:13:21.578Z,21.70
2022-12-18T02:16:04.264Z,22.90
2022-12-18T02:18:38.579Z,21.80
2022-12-18T02:21:16.501Z,26.30
2022-12-18T02:23:52.080Z,30.50
2022-12-18T02:26:42.002Z,27.00
2022-12-18T02:29:15.688Z,20.00
2022-12-18T02:31:50.599Z,20.20
2022-12-18T02:34:20.801Z,19.90
2022-12-18T02:36:50.440Z,26.60
2022-12-18T02:39:21.500Z,42.10
2022-12-18T02:42:00.344Z,34.20
2022-12-18T02:44:27.581Z,16.90
2022-12-18T02:46:55.432Z,20.80
2022-12-18T02:49:32.241Z,22.50
2022-12-18T02:52:10.390Z,24.30
2022-12-18T02:54:48.728Z,29.30
2022-12-18T02:57:49.380Z,24.10
2022-12-18T03:00:32.746Z,18.60
2022-12-18T03:03:20.634Z,18.50
2022-12-18T03:05:57.057Z,19.90
2022-12-18T03:08:39.846Z,21.30
2022-12-18T03:11:11.071Z,24.10
2022-12-18T03:13:51.515Z,25.40
2022-12-18T03:16:26.994Z,34.80
2022-12-18T03:19:08.867Z,30.70
2022-12-18T03:21:43.691Z,24.40
2022-12-18T03:24:11.915Z,25.70
2022-12-18T03:26:44.956Z,31.00
2022-12-18T03:29:19.510Z,28.80
2022-12-18T03:31:52.845Z,25.50
2022-12-18T03:34:31.898Z,26.60
2022-12-18T03:37:03.926Z,26.70
2022-12-18T03:39:33.302Z,25.30
2022-12-18T03:42:03.671Z,25.90
2022-12-18T03:44:53.450Z,24.20
2022-12-18T03:47:40.624Z,23.90
2022-12-18T03:50:17.874Z,22.20
2022-12-18T03:52:55.616Z,22.00
2022-12-18T03:55:27.100Z,22.60
2022-12-18T03:58:00.437Z,23.70
2022-12-18T04:00:32.582Z,23.60
2022-12-18T04:03:06.342Z,24.90
2022-12-18T04:05:44.464Z,24.70
2022-12-18T04:08:12.688Z,25.40
2022-12-18T04:10:43.167Z,28.10
2022-12-18T04:13:11.003Z,26.40
2022-12-18T04:15:39.503Z,23.50
2022-12-18T04:18:08.658Z,22.90
2022-12-18T04:20:41.355Z,22.90
2022-12-18T04:23:09.221Z,24.80
2022-12-18T04:25:37.381Z,27.40
2022-12-18T04:28:12.123Z,23.80
2022-12-18T04:30:39.656Z,23.60
2022-12-18T04:33:11.765Z,23.90
2022-12-18T04:35:41.046Z,23.20
2022-12-18T04:38:11.887Z,49.70
2022-12-18T04:40:39.594Z,26.00
2022-12-18T04:43:13.321Z,25.50
2022-12-18T04:45:40.778Z,25.00
2022-12-18T04:48:07.940Z,23.40
2022-12-18T04:50:35.841Z,35.50
2022-12-18T04:53:03.002Z,38.60
2022-12-18T04:55:30.352Z,31.70
2022-12-18T04:57:58.325Z,29.20
2022-12-18T05:00:25.531Z,26.30
2022-12-18T05:02:53.138Z,26.10
2022-12-18T05:05:21.108Z,27.40
2022-12-18T05:07:48.320Z,27.20
2022-12-18T05:10:15.548Z,28.80
2022-12-18T05:12:58.753Z,26.00
2022-12-18T05:15:30.848Z,27.50
2022-12-18T05:17:59.362Z,27.30
2022-12-18T05:20:28.077Z,25.50
2022-12-18T05:22:55.965Z,25.90
2022-12-18T05:25:24.359Z,26.00
2022-12-18T05:27:52.302Z,30.80
2022-12-18T05:30:19.577Z,30.20
2022-12-18T05:32:47.161Z,24.50
2022-12-18T05:35:15.075Z,26.50
2022-12-18T05:37:43.455Z,30.00
2022-12-18T05:40:11.805Z,26.30
2022-12-18T05:42:39.530Z,26.80
2022-12-18T05:45:07.280Z,28.20
2022-12-18T05:47:35.621Z,28.20
2022-12-18T05:50:03.485Z,66.80
2022-12-18T05:52:31.469Z,43.90
2022-12-18T05:54:59.672Z,46.70
2022-12-18T05:57:27.687Z,74.30
2022-12-18T05:59:56.270Z,43.40
2022-12-18T06:02:23.804Z,54.00
2022-12-18T06:04:51.475Z,73.70
2022-12-18T06:07:18.795Z,103.30
2022-12-18T06:09:46.454Z,128.80
2022-12-18T06:12:14.822Z,124.30
2022-12-18T06:14:42.051Z,170.40
2022-12-18T06:17:09.546Z,149.80
2022-12-18T06:19:37.754Z,102.00
2022-12-18T06:22:04.886Z,89.80
2022-12-18T06:24:33.695Z,142.20
2022-12-18T06:27:01.453Z,140.60
2022-12-18T06:29:28.747Z,119.30
2022-12-18T06:31:56.267Z,115.60
2022-12-18T06:34:23.746Z,78.40
2022-12-18T06:36:51.141Z,90.20
2022-12-18T06:39:18.598Z,103.40
2022-12-18T06:41:45.943Z,95.80
2022-12-18T06:44:13.151Z,60.00
2022-12-18T06:46:41.385Z,70.80
2022-12-18T06:49:10.492Z,44.90
2022-12-18T06:51:37.886Z,52.20
2022-12-18T06:54:05.795Z,49.60
2022-12-18T06:56:33.391Z,44.00
2022-12-18T06:59:00.668Z,44.00
2022-12-18T07:01:28.567Z,37.70
2022-12-18T07:03:57.745Z,35.00
2022-12-18T07:06:26.539Z,34.50
2022-12-18T07:08:54.773Z,28.30
2022-12-18T07:11:22.659Z,35.00
2022-12-18T07:13:49.804Z,36.60
2022-12-18T07:16:24.723Z,46.20
2022-12-18T07:18:55.655Z,48.40
2022-12-18T07:21:24.775Z,47.50
2022-12-18T07:23:52.554Z,45.50
2022-12-18T07:26:21.861Z,51.70
2022-12-18T07:28:50.420Z,55.30
2022-12-18T07:31:21.598Z,48.50
2022-12-18T07:33:50.544Z,55.10
2022-12-18T07:36:19.352Z,51.30
2022-12-18T07:38:51.199Z,46.60
2022-12-18T07:41:19.263Z,54.10
2022-12-18T07:43:47.171Z,46.70
2022-12-18T07:46:15.705Z,51.80
2022-12-18T07:48:44.276Z,53.70
2022-12-18T07:51:14.324Z,47.40
2022-12-18T07:53:43.309Z,40.20
2022-12-18T07:56:29.547Z,35.40
2022-12-18T07:58:58.759Z,34.70
2022-12-18T08:01:26.286Z,37.80
2022-12-18T08:03:53.866Z,37.40
2022-12-18T08:06:22.562Z,38.30
2022-12-18T08:08:53.209Z,37.30
2022-12-18T08:11:20.510Z,36.10
2022-12-18T08:13:49.194Z,40.80
2022-12-18T08:16:17.170Z,42.90
2022-12-18T08:18:44.774Z,45.60
2022-12-18T08:21:19.107Z,38.40
2022-12-18T08:23:50.416Z,33.20
2022-12-18T08:26:19.636Z,35.80
2022-12-18T08:28:48.682Z,35.00
2022-12-18T08:31:17.762Z,38.30
2022-12-18T08:33:45.583Z,47.50
2022-12-18T08:36:13.206Z,51.40
2022-12-18T08:38:40.605Z,57.40
2022-12-18T08:41:11.997Z,72.90
2022-12-18T08:43:59.136Z,70.20
2022-12-18T08:46:28.894Z,63.70
2022-12-18T08:48:56.791Z,51.00
2022-12-18T08:51:24.472Z,57.30
2022-12-18T08:53:52.508Z,55.30
2022-12-18T08:56:19.801Z,53.20
2022-12-18T08:59:00.370Z,45.50
2022-12-18T09:01:37.923Z,61.90
2022-12-18T09:04:11.153Z,60.40
2022-12-18T09:06:39.214Z,88.90
2022-12-18T09:09:07.174Z,74.60
2022-12-18T09:11:34.669Z,67.90
2022-12-18T09:14:02.517Z,73.20
2022-12-18T09:16:32.225Z,62.50
2022-12-18T09:19:01.060Z,59.80
2022-12-18T09:21:35.928Z,63.80
2022-12-18T09:24:07.319Z,63.30
2022-12-18T09:26:37.288Z,53.80
2022-12-18T09:29:04.925Z,57.10
2022-12-18T09:31:32.238Z,56.10
2022-12-18T09:34:00.084Z,55.60
2022-12-18T09:36:27.383Z,52.60
2022-12-18T09:38:55.431Z,54.90
2022-12-18T09:41:22.994Z,60.10
2022-12-18T09:43:54.919Z,63.50
2022-12-18T09:46:34.589Z,58.30
2022-12-18T09:49:05.909Z,53.30
2022-12-18T09:51:43.029Z,56.30
2022-12-18T09:54:21.336Z,54.00
2022-12-18T09:56:49.129Z,46.40
2022-12-18T09:59:37.495Z,48.00
2022-12-18T10:02:33.961Z,49.10
2022-12-18T10:05:09.598Z,46.70
2022-12-18T10:07:47.250Z,49.70
2022-12-18T10:10:27.371Z,46.70
2022-12-18T10:15:41.307Z,38.80
2022-12-18T10:18:27.435Z,41.90
2022-12-18T10:21:24.103Z,42.70
2022-12-18T10:24:19.059Z,41.80
2022-12-18T10:26:48.446Z,41.40
2022-12-18T10:29:16.921Z,33.20
2022-12-18T10:31:44.361Z,42.40
2022-12-18T10:34:14.932Z,42.70
2022-12-18T10:36:43.011Z,45.20
2022-12-18T10:39:37.635Z,52.00
2022-12-18T10:42:17.720Z,41.00
2022-12-18T10:44:45.645Z,42.20
2022-12-18T10:47:19.565Z,40.80
2022-12-18T10:49:53.522Z,40.20
2022-12-18T10:52:26.928Z,41.00
2022-12-18T10:55:06.087Z,41.60
2022-12-18T10:57:37.567Z,41.70
2022-12-18T11:00:29.254Z,43.00
2022-12-18T11:02:57.627Z,40.00
2022-12-18T11:05:31.761Z,41.30
2022-12-18T11:08:01.067Z,39.30
2022-12-18T11:10:38.551Z,28.00
2022-12-18T11:13:18.309Z,35.90
2022-12-18T11:15:46.495Z,29.50
2022-12-18T11:18:26.900Z,38.00
2022-12-18T11:21:15.533Z,39.20
2022-12-18T11:23:54.899Z,46.90
2022-12-18T11:26:35.433Z,39.00
2022-12-18T11:29:11.590Z,44.30
2022-12-18T11:31:38.948Z,45.10
2022-12-18T11:34:54.706Z,42.50
2022-12-18T11:37:27.820Z,41.60
2022-12-18T11:40:00.500Z,39.60
2022-12-18T11:42:43.569Z,40.50
2022-12-18T11:45:14.244Z,34.50
2022-12-18T11:47:45.464Z,39.80
2022-12-18T11:50:32.629Z,38.30
2022-12-18T11:53:05.645Z,38.10
2022-12-18T11:55:52.672Z,38.40
2022-12-18T11:58:47.614Z,44.50
2022-12-18T12:01:56.996Z,47.90
2022-12-18T12:04:34.934Z,38.10
2022-12-18T12:07:05.678Z,50.50
2022-12-18T12:09:52.268Z,48.50
2022-12-18T12:12:49.539Z,44.60
2022-12-18T12:15:29.999Z,37.20
2022-12-18T12:18:11.475Z,37.90
2022-12-18T12:21:05.545Z,40.60
2022-12-18T12:23:55.869Z,39.30
2022-12-18T12:26:26.120Z,38.00
2022-12-18T12:29:22.903Z,44.40
2022-12-18T12:32:15.646Z,40.70
2022-12-18T12:35:00.831Z,37.60
2022-12-18T12:37:45.283Z,39.50
2022-12-18T12:40:49.293Z,39.80
2022-12-18T12:43:22.362Z,36.20
2022-12-18T12:46:11.250Z,39.10
2022-12-18T12:48:47.402Z,36.40
2022-12-18T12:51:20.082Z,39.30
2022-12-18T12:53:49.888Z,39.50
2022-12-18T12:56:20.431Z,37.90
2022-12-18T12:58:57.265Z,31.20
2022-12-18T13:01:37.089Z,34.60
2022-12-18T13:04:23.125Z,34.00
2022-12-18T13:07:03.009Z,33.50
2022-12-18T13:12:30.510Z,35.10
2022-12-18T13:17:49.727Z,37.30
2022-12-18T13:20:17.289Z,35.90
2022-12-18T13:22:49.976Z,34.60
2022-12-18T13:25:38.043Z,37.50
2022-12-18T13:28:16.136Z,32.90
2022-12-18T13:30:57.493Z,39.40
2022-12-18T13:33:51.020Z,37.30
2022-12-18T13:36:34.810Z,37.50
2022-12-18T13:39:19.695Z,36.60
2022-12-18T13:41:53.542Z,39.10
2022-12-18T13:44:40.027Z,41.20
2022-12-18T13:47:32.986Z,40.30
2022-12-18T13:50:10.990Z,34.40
2022-12-18T13:52:40.701Z,39.70
2022-12-18T13:55:17.908Z,61.00
2022-12-18T13:57:45.657Z,47.70
2022-12-18T14:00:26.862Z,40.40
2022-12-18T14:05:24.405Z,39.10
2022-12-18T14:07:54.531Z,43.60
2022-12-18T14:10:44.410Z,41.70
2022-12-18T14:13:25.479Z,45.90
2022-12-18T14:15:54.436Z,44.00
2022-12-18T14:18:57.564Z,37.10
2022-12-18T14:21:38.798Z,36.70
2022-12-18T14:24:23.204Z,40.80
2022-12-18T14:26:51.653Z,40.80
2022-12-18T14:29:31.864Z,38.40
2022-12-18T14:32:18.681Z,41.50
2022-12-18T14:34:51.043Z,39.80
2022-12-18T14:37:26.439Z,47.20
2022-12-18T14:40:02.188Z,50.60
2022-12-18T14:42:32.652Z,50.50
2022-12-18T14:45:42.404Z,53.90
2022-12-18T14:48:22.942Z,50.30
2022-12-18T14:51:03.423Z,46.90
2022-12-18T14:56:02.881Z,37.70
2022-12-18T14:58:30.598Z,37.70
2022-12-18T15:00:58.514Z,35.60
2022-12-18T15:03:26.213Z,36.20
2022-12-18T15:05:54.675Z,37.30
2022-12-18T15:08:35.882Z,37.60
2022-12-18T15:11:06.602Z,38.30
2022-12-18T15:13:36.725Z,37.20
2022-12-18T15:16:04.229Z,38.60
2022-12-18T15:18:36.269Z,36.50
2022-12-18T15:21:15.215Z,36.30
2022-12-18T15:23:46.153Z,38.10
2022-12-18T15:26:16.693Z,40.10
2022-12-18T15:28:50.922Z,39.40
2022-12-18T15:31:30.054Z,40.90
2022-12-18T15:33:59.922Z,44.20
2022-12-18T15:36:30.972Z,43.60
2022-12-18T15:39:05.071Z,41.00
2022-12-18T15:41:36.527Z,43.00
2022-12-18T15:44:22.999Z,44.00
2022-12-18T15:46:50.922Z,46.70
2022-12-18T15:49:18.231Z,49.70
2022-12-18T15:51:49.497Z,50.70
2022-12-18T15:54:17.809Z,50.30
2022-12-18T15:57:03.463Z,45.20
2022-12-18T15:59:30.934Z,44.60
2022-12-18T16:01:58.562Z,45.00
2022-12-18T16:04:26.333Z,44.60
2022-12-18T16:09:41.368Z,43.00
2022-12-18T16:12:21.741Z,45.70
2022-12-18T16:14:49.465Z,47.40
2022-12-18T16:17:17.086Z,48.60
2022-12-18T16:19:44.876Z,49.70
2022-12-18T16:22:20.513Z,47.70
2022-12-18T16:24:48.977Z,45.80
2022-12-18T16:27:16.676Z,44.40
2022-12-18T16:29:44.241Z,45.00
2022-12-18T16:32:18.171Z,44.70
2022-12-18T16:34:45.995Z,43.20
2022-12-18T16:37:15.396Z,43.90
2022-12-18T16:39:43.183Z,43.30
2022-12-18T16:42:19.572Z,44.20
2022-12-18T16:44:48.892Z,42.70
2022-12-18T16:47:17.189Z,44.80
2022-12-18T16:49:46.068Z,45.50
2022-12-18T16:52:14.409Z,42.50
2022-12-18T16:54:41.783Z,42.40
2022-12-18T16:57:16.712Z,42.80
2022-12-18T16:59:44.406Z,46.50
2022-12-18T17:02:23.423Z,48.20
2022-12-18T17:04:57.013Z,46.00
2022-12-18T17:07:25.864Z,51.40
2022-12-18T17:09:54.391Z,48.50
2022-12-18T17:12:22.484Z,52.30
2022-12-18T17:14:50.025Z,49.00
2022-12-18T17:17:21.792Z,48.20
2022-12-18T17:19:50.066Z,49.80
2022-12-18T17:22:18.145Z,49.50
2022-12-18T17:24:50.099Z,46.90
2022-12-18T17:27:17.778Z,50.00
2022-12-18T17:29:48.264Z,49.50
2022-12-18T17:32:17.865Z,47.40
2022-12-18T17:34:46.113Z,38.80
2022-12-18T17:37:14.098Z,45.60
2022-12-18T17:39:44.540Z,46.60
2022-12-18T17:42:15.350Z,45.80
2022-12-18T17:44:44.471Z,49.70
2022-12-18T17:47:13.629Z,44.10
2022-12-18T17:49:40.950Z,37.80
2022-12-18T17:52:08.551Z,44.90
2022-12-18T17:54:39.191Z,42.20
2022-12-18T17:57:06.396Z,40.20
2022-12-18T17:59:34.848Z,42.70
2022-12-18T18:02:02.216Z,42.50
2022-12-18T18:04:40.812Z,41.10
2022-12-18T18:07:37.545Z,44.20
2022-12-18T18:10:22.589Z,41.90
2022-12-18T18:16:43.081Z,39.70
2022-12-18T18:19:37.867Z,42.50
2022-12-18T18:22:38.641Z,49.00
2022-12-18T18:25:28.115Z,51.80
2022-12-18T18:28:26.995Z,52.20
2022-12-18T18:31:19.966Z,53.20
2022-12-18T18:34:15.963Z,58.40
2022-12-18T18:37:17.677Z,51.50
2022-12-18T18:40:07.899Z,53.00
2022-12-18T18:43:01.828Z,48.70
2022-12-18T18:45:39.459Z,47.10
2022-12-18T18:48:14.453Z,49.30
2022-12-18T18:50:45.375Z,47.20
2022-12-18T18:53:12.697Z,50.30
2022-12-18T18:55:41.139Z,49.70
2022-12-18T18:58:08.602Z,53.30
2022-12-18T19:00:36.218Z,55.20
2022-12-18T19:03:04.386Z,54.80
2022-12-18T19:05:33.688Z,55.60
2022-12-18T19:08:00.994Z,55.50
2022-12-18T19:10:29.193Z,52.70
2022-12-18T19:13:15.963Z,52.20
2022-12-18T19:15:45.759Z,59.30
2022-12-18T19:18:13.501Z,53.30
2022-12-18T19:20:41.521Z,52.10
2022-12-18T19:23:09.740Z,52.50
2022-12-18T19:25:41.653Z,55.60
2022-12-18T19:28:21.945Z,48.80
2022-12-18T19:30:58.576Z,48.00
2022-12-18T19:33:44.598Z,48.10
2022-12-18T19:36:20.811Z,46.70
2022-12-18T19:38:50.176Z,45.10
2022-12-18T19:41:18.861Z,44.40
2022-12-18T19:43:47.892Z,37.90
2022-12-18T19:46:17.942Z,46.00
2022-12-18T19:48:46.733Z,47.40
2022-12-18T19:51:18.550Z,54.00
2022-12-18T19:53:46.993Z,53.80
2022-12-18T19:56:17.004Z,60.90
2022-12-18T19:58:45.209Z,56.20
2022-12-18T20:01:20.462Z,50.50
2022-12-18T20:03:52.433Z,50.10
2022-12-18T20:06:27.658Z,48.00
2022-12-18T20:09:00.050Z,46.20
2022-12-18T20:11:29.956Z,46.80
2022-12-18T20:13:57.964Z,47.00
2022-12-18T20:16:25.323Z,51.40
2022-12-18T20:18:55.769Z,49.60
2022-12-18T20:21:23.833Z,50.60
2022-12-18T20:23:51.500Z,52.00
2022-12-18T20:26:19.424Z,49.00
2022-12-18T20:28:47.520Z,49.70
2022-12-18T20:31:14.893Z,48.60
2022-12-18T20:33:43.129Z,51.40
2022-12-18T20:36:21.278Z,46.20
2022-12-18T20:38:56.960Z,47.90
2022-12-18T20:41:25.401Z,46.40
2022-12-18T20:43:52.622Z,49.10
2022-12-18T20:46:20.477Z,50.70
2022-12-18T20:48:48.628Z,52.30
2022-12-18T20:51:21.078Z,48.90
2022-12-18T20:53:48.562Z,48.20
2022-12-18T20:56:21.184Z,48.40
2022-12-18T20:58:51.336Z,51.10
2022-12-18T21:01:24.194Z,55.00
2022-12-18T21:03:52.545Z,52.20
2022-12-18T21:06:22.062Z,55.00
2022-12-18T21:11:38.826Z,59.50
2022-12-18T21:14:13.503Z,58.20
2022-12-18T21:16:43.671Z,60.90
2022-12-18T21:19:12.792Z,51.20
2022-12-18T21:21:41.426Z,53.50
2022-12-18T21:24:09.948Z,55.00
2022-12-18T21:26:44.829Z,46.20
2022-12-18T21:29:16.530Z,46.40
2022-12-18T21:31:45.000Z,44.60
2022-12-18T21:34:20.017Z,46.60
2022-12-18T21:36:48.332Z,44.00
2022-12-18T21:39:15.918Z,43.20
2022-12-18T21:42:03.104Z,40.70
2022-12-18T21:44:31.540Z,40.30
2022-12-18T21:47:13.751Z,41.20
2022-12-18T21:49:52.580Z,40.50
2022-12-18T21:52:31.582Z,40.60
2022-12-18T21:55:09.521Z,36.80
2022-12-18T21:57:38.200Z,42.40
2022-12-18T22:00:11.256Z,41.30
2022-12-18T22:02:47.264Z,42.80
2022-12-18T22:05:15.248Z,41.30
2022-12-18T22:07:42.533Z,49.60
2022-12-18T22:10:10.120Z,43.90
2022-12-18T22:12:44.466Z,48.80
2022-12-18T22:15:21.709Z,47.00
2022-12-18T22:17:50.834Z,51.90
2022-12-18T22:20:20.064Z,54.60
2022-12-18T22:22:51.153Z,50.20
2022-12-18T22:25:18.932Z,40.50
2022-12-18T22:28:06.375Z,43.00
2022-12-18T22:30:34.536Z,34.50
2022-12-18T22:33:02.154Z,35.70
2022-12-18T22:35:29.418Z,34.70
2022-12-18T22:38:00.764Z,31.10
2022-12-18T22:40:28.412Z,30.10
2022-12-18T22:42:55.937Z,30.80
2022-12-18T22:45:27.543Z,30.40
2022-12-18T22:47:54.924Z,31.30
2022-12-18T22:50:22.266Z,33.40
2022-12-18T22:52:49.886Z,28.00
2022-12-18T22:55:17.017Z,28.20
2022-12-18T22:57:48.729Z,24.90
2022-12-18T23:00:24.255Z,25.70
2022-12-18T23:03:00.359Z,25.70
2022-12-18T23:05:30.988Z,24.70
2022-12-18T23:07:58.846Z,25.90
2022-12-18T23:10:27.008Z,24.70
2022-12-18T23:12:55.389Z,20.70
2022-12-18T23:15:27.891Z,24.00
2022-12-18T23:17:59.605Z,20.60
2022-12-18T23:20:27.582Z,19.50
2022-12-18T23:22:54.770Z,22.00
2022-12-18T23:25:23.193Z,19.30
2022-12-18T23:27:50.752Z,11.80
2022-12-18T23:30:18.177Z,10.50
2022-12-18T23:32:46.725Z,8.90
2022-12-18T23:35:14.275Z,9.30
2022-12-18T23:38:00.103Z,7.60
2022-12-18T23:40:29.610Z,7.90
2022-12-18T23:42:58.667Z,8.60
2022-12-18T23:45:25.904Z,8.40
2022-12-18T23:47:54.083Z,8.20
2022-12-18T23:50:27.701Z,8.10
2022-12-18T23:53:04.606Z,6.60
2022-12-18T23:55:38.969Z,6.00
2022-12-18T23:58:08.935Z,5.30
